Terminal Aerodrome Forecast
Issued by NWS

Home | Current Version | Previous Version | Graphics & Text | Print | Product List | Glossary On
Versions: 1 2 3 4 5 6 7 8 9 10 11 12 13 14 15 16 17
000
FTUS43 KTOP 202300 CCA
TAFFOE
TAF COR
KFOE 202359Z 2100/2124 01010KT P6SM SCT017 BKN026
     FM210100 36005KT P6SM FEW015 SCT025 BKN035
      TEMPO 2101/2103 BKN027
     FM211100 34006KT P6SM BKN200=

USA.gov is the U.S. government's official web portal to all federal, state and local government web resources and services.